createdAt,value
2023-11-29T00:00:43.895Z,54.00
2023-11-29T00:03:14.743Z,53.93
2023-11-29T00:05:46.422Z,53.98
2023-11-29T00:08:18.908Z,54.05
2023-11-29T00:10:49.766Z,54.03
2023-11-29T00:13:21.635Z,53.81
2023-11-29T00:15:52.949Z,53.81
2023-11-29T00:18:23.955Z,53.97
2023-11-29T00:20:54.854Z,54.05
2023-11-29T00:23:25.719Z,53.76
2023-11-29T00:25:56.533Z,53.75
2023-11-29T00:28:27.341Z,53.68
2023-11-29T00:30:58.185Z,53.81
2023-11-29T00:33:29.050Z,53.95
2023-11-29T00:35:59.920Z,53.74
2023-11-29T00:38:30.811Z,53.37
2023-11-29T00:41:01.724Z,53.67
2023-11-29T00:43:33.182Z,53.57
2023-11-29T00:46:04.560Z,53.45
2023-11-29T00:48:35.435Z,53.59
2023-11-29T00:51:08.968Z,53.80
2023-11-29T00:53:40.030Z,54.12
2023-11-29T00:56:24.106Z,54.37
2023-11-29T00:58:54.962Z,54.67
2023-11-29T01:04:14.354Z,54.64
2023-11-29T01:12:21.829Z,54.76
2023-11-29T01:14:52.663Z,54.54
2023-11-29T01:17:23.518Z,54.06
2023-11-29T01:19:54.441Z,54.03
2023-11-29T01:22:25.310Z,54.29
2023-11-29T01:24:56.105Z,54.67
2023-11-29T01:27:31.533Z,54.63
2023-11-29T01:30:04.158Z,54.72
2023-11-29T01:32:35.121Z,54.90
2023-11-29T01:35:06.674Z,55.32
2023-11-29T01:37:37.527Z,55.17
2023-11-29T01:40:10.722Z,55.32
2023-11-29T01:42:41.937Z,54.93
2023-11-29T01:45:13.366Z,54.76
2023-11-29T01:47:45.085Z,54.66
2023-11-29T01:50:18.024Z,54.58
2023-11-29T01:52:49.802Z,54.86
2023-11-29T01:55:23.785Z,54.62
2023-11-29T01:57:55.763Z,54.74
2023-11-29T02:00:26.697Z,54.61
2023-11-29T02:02:57.713Z,54.25
2023-11-29T02:05:28.914Z,54.63
2023-11-29T02:08:00.218Z,55.22
2023-11-29T02:10:31.378Z,55.40
2023-11-29T02:13:02.737Z,55.75
2023-11-29T02:15:34.713Z,55.57
2023-11-29T02:18:05.658Z,55.64
2023-11-29T02:20:37.624Z,55.46
2023-11-29T02:23:16.170Z,55.19
2023-11-29T02:25:47.098Z,55.05
2023-11-29T02:28:17.944Z,55.16
2023-11-29T02:30:48.806Z,54.90
2023-11-29T02:33:19.725Z,54.93
2023-11-29T02:35:50.570Z,54.77
2023-11-29T02:38:22.666Z,54.67
2023-11-29T02:40:53.601Z,54.34
2023-11-29T02:43:24.509Z,53.86
2023-11-29T02:45:55.343Z,53.59
2023-11-29T02:48:26.276Z,53.53
2023-11-29T02:50:57.197Z,53.61
2023-11-29T02:53:28.281Z,53.22
2023-11-29T02:55:59.099Z,52.86
2023-11-29T02:58:29.937Z,52.64
2023-11-29T03:01:00.810Z,52.16
2023-11-29T03:03:31.647Z,51.86
2023-11-29T03:06:02.543Z,51.93
2023-11-29T03:08:33.492Z,52.05
2023-11-29T03:11:04.354Z,51.91
2023-11-29T03:13:35.186Z,51.87
2023-11-29T03:16:06.600Z,51.95
2023-11-29T03:18:37.440Z,51.82
2023-11-29T03:21:08.698Z,51.67
2023-11-29T03:23:39.511Z,51.79
2023-11-29T03:26:11.000Z,51.84
2023-11-29T03:28:41.894Z,52.19
2023-11-29T03:31:12.829Z,52.31
2023-11-29T03:33:43.648Z,52.54
2023-11-29T03:36:13.145Z,53.00
2023-11-29T03:38:43.984Z,53.00
2023-11-29T03:41:14.906Z,53.26
2023-11-29T03:43:45.749Z,53.55
2023-11-29T03:46:16.638Z,53.24
2023-11-29T03:48:47.507Z,53.38
2023-11-29T03:51:16.717Z,53.52
2023-11-29T03:53:47.639Z,53.75
2023-11-29T03:56:18.560Z,54.01
2023-11-29T03:58:49.397Z,54.28
2023-11-29T04:01:18.579Z,54.49
2023-11-29T04:03:49.524Z,54.16
2023-11-29T04:06:28.682Z,53.98
2023-11-29T04:08:59.558Z,54.08
2023-11-29T04:11:30.653Z,53.88
2023-11-29T04:14:01.669Z,53.87
2023-11-29T04:16:32.825Z,53.86
2023-11-29T04:19:03.794Z,53.75
2023-11-29T04:21:37.149Z,53.53
2023-11-29T04:24:08.512Z,53.44
2023-11-29T04:26:41.222Z,53.49
2023-11-29T04:29:13.544Z,53.51
2023-11-29T04:31:45.549Z,53.25
2023-11-29T04:34:23.440Z,53.26
2023-11-29T04:37:04.060Z,53.03
2023-11-29T04:39:34.873Z,52.97
2023-11-29T04:42:04.065Z,52.98
2023-11-29T04:44:37.005Z,52.63
2023-11-29T04:47:09.581Z,52.54
2023-11-29T04:49:41.165Z,52.53
2023-11-29T04:52:12.072Z,52.59
2023-11-29T04:54:42.881Z,52.58
2023-11-29T04:57:12.091Z,52.72
2023-11-29T04:59:42.921Z,52.87
2023-11-29T05:02:13.930Z,53.00
2023-11-29T05:04:44.832Z,53.15
2023-11-29T05:07:16.411Z,53.41
2023-11-29T05:09:47.231Z,53.97
2023-11-29T05:12:16.522Z,54.20
2023-11-29T05:14:47.372Z,54.22
2023-11-29T05:17:18.321Z,54.29
2023-11-29T05:19:49.296Z,54.42
2023-11-29T05:22:20.669Z,54.78
2023-11-29T05:24:51.508Z,55.01
2023-11-29T05:27:22.336Z,55.17
2023-11-29T05:29:51.814Z,55.40
2023-11-29T05:32:22.759Z,55.53
2023-11-29T05:34:53.691Z,55.67
2023-11-29T05:37:24.527Z,55.69
2023-11-29T05:39:53.769Z,55.89
2023-11-29T05:42:24.716Z,56.07
2023-11-29T05:44:56.163Z,56.32
2023-11-29T05:47:27.122Z,56.43
2023-11-29T05:49:57.994Z,56.50
2023-11-29T05:52:29.058Z,56.73
2023-11-29T05:55:01.482Z,56.97
2023-11-29T05:57:32.390Z,57.50
2023-11-29T06:00:23.451Z,57.23
2023-11-29T06:03:01.123Z,57.46
2023-11-29T06:05:32.992Z,57.81
2023-11-29T06:08:04.446Z,58.04
2023-11-29T06:10:35.272Z,58.17
2023-11-29T06:13:04.822Z,58.22
2023-11-29T06:15:36.854Z,58.42
2023-11-29T06:18:09.916Z,58.49
2023-11-29T06:20:40.892Z,58.27
2023-11-29T06:23:11.824Z,58.41
2023-11-29T06:25:42.683Z,58.41
2023-11-29T06:28:11.959Z,58.69
2023-11-29T06:30:42.815Z,58.86
2023-11-29T06:33:12.068Z,59.10
2023-11-29T06:35:43.200Z,59.42
2023-11-29T06:38:14.152Z,59.50
2023-11-29T06:40:50.520Z,59.58
2023-11-29T06:43:25.085Z,59.42
2023-11-29T06:45:55.998Z,59.05
2023-11-29T06:48:26.908Z,59.37
2023-11-29T06:50:58.248Z,59.22
2023-11-29T06:53:29.224Z,59.39
2023-11-29T06:56:00.136Z,59.15
2023-11-29T06:58:31.014Z,58.99
2023-11-29T07:01:00.301Z,58.98
2023-11-29T07:03:31.178Z,59.10
2023-11-29T07:06:00.535Z,59.23
2023-11-29T07:08:32.842Z,59.28
2023-11-29T07:11:05.848Z,59.21
2023-11-29T07:13:36.899Z,59.26
2023-11-29T07:16:08.705Z,59.95
2023-11-29T07:18:39.665Z,60.11
2023-11-29T07:21:10.949Z,58.28
2023-11-29T07:23:42.150Z,57.46
2023-11-29T07:26:13.735Z,57.53
2023-11-29T07:28:46.243Z,57.61
2023-11-29T07:31:17.531Z,57.59
2023-11-29T07:33:48.597Z,57.55
2023-11-29T07:36:19.476Z,57.74
2023-11-29T07:38:51.095Z,57.90
2023-11-29T07:41:23.507Z,57.89
2023-11-29T07:43:54.486Z,57.67
2023-11-29T07:46:25.405Z,57.35
2023-11-29T07:48:56.299Z,57.46
2023-11-29T07:51:27.793Z,57.33
2023-11-29T07:53:58.695Z,57.45
2023-11-29T07:56:29.652Z,57.56
2023-11-29T07:59:00.520Z,57.40
2023-11-29T08:01:31.422Z,57.28
2023-11-29T08:04:02.409Z,56.65
2023-11-29T08:06:33.978Z,56.36
2023-11-29T08:09:05.277Z,56.17
2023-11-29T08:11:36.219Z,55.79
2023-11-29T08:14:07.158Z,55.47
2023-11-29T08:16:38.007Z,55.33
2023-11-29T08:19:09.778Z,55.07
2023-11-29T08:21:40.742Z,54.78
2023-11-29T08:24:13.205Z,54.51
2023-11-29T08:26:44.072Z,54.58
2023-11-29T08:29:14.904Z,54.41
2023-11-29T08:31:45.739Z,53.79
2023-11-29T08:34:16.625Z,53.77
2023-11-29T08:36:48.009Z,53.73
2023-11-29T08:39:18.895Z,53.89
2023-11-29T08:41:49.872Z,53.87
2023-11-29T08:44:20.811Z,53.88
2023-11-29T08:46:51.754Z,53.13
2023-11-29T08:49:22.654Z,52.78
2023-11-29T08:51:53.987Z,53.03
2023-11-29T08:54:24.932Z,52.91
2023-11-29T08:56:55.881Z,52.50
2023-11-29T08:59:26.794Z,51.40
2023-11-29T09:01:57.865Z,51.03
2023-11-29T09:04:28.796Z,50.87
2023-11-29T09:07:00.660Z,51.16
2023-11-29T09:09:31.786Z,50.64
2023-11-29T09:12:04.473Z,50.52
2023-11-29T09:14:35.410Z,49.79
2023-11-29T09:17:06.872Z,49.45
2023-11-29T09:19:38.104Z,49.52
2023-11-29T09:22:09.736Z,49.21
2023-11-29T09:24:40.698Z,49.21
2023-11-29T09:27:12.820Z,48.63
2023-11-29T09:29:43.946Z,48.63
2023-11-29T09:32:14.808Z,48.63
2023-11-29T09:34:46.121Z,48.58
2023-11-29T09:37:17.258Z,47.97
2023-11-29T09:39:48.193Z,47.36
2023-11-29T09:42:23.212Z,47.46
2023-11-29T09:44:56.927Z,47.08
2023-11-29T09:47:28.236Z,46.93
2023-11-29T09:50:01.650Z,46.62
2023-11-29T09:52:32.724Z,46.52
2023-11-29T09:55:04.602Z,46.41
2023-11-29T09:57:36.365Z,45.71
2023-11-29T10:00:11.553Z,46.07
2023-11-29T10:02:43.185Z,46.05
2023-11-29T10:05:14.843Z,45.54
2023-11-29T10:07:47.032Z,45.54
2023-11-29T10:10:17.952Z,45.29
2023-11-29T10:12:48.794Z,45.43
2023-11-29T10:15:19.724Z,45.11
2023-11-29T10:17:52.841Z,44.78
2023-11-29T10:20:27.990Z,44.79
2023-11-29T10:22:58.888Z,44.37
2023-11-29T10:25:30.635Z,43.43
2023-11-29T10:28:01.489Z,43.51
2023-11-29T10:30:32.481Z,43.15
2023-11-29T10:33:05.085Z,43.17
2023-11-29T10:35:36.845Z,42.66
2023-11-29T10:38:13.344Z,41.76
2023-11-29T10:40:45.851Z,41.93
2023-11-29T10:43:20.775Z,41.55
2023-11-29T10:45:57.576Z,41.42
2023-11-29T10:48:32.397Z,41.48
2023-11-29T10:51:04.373Z,41.42
2023-11-29T10:53:36.246Z,40.99
2023-11-29T10:56:08.387Z,41.37
2023-11-29T10:58:47.901Z,41.88
2023-11-29T11:01:32.211Z,42.07
2023-11-29T11:04:10.175Z,41.33
2023-11-29T11:06:42.433Z,41.16
2023-11-29T11:09:37.305Z,41.11
2023-11-29T11:12:09.636Z,40.76
2023-11-29T11:14:56.247Z,40.68
2023-11-29T11:17:28.599Z,39.83
2023-11-29T11:20:09.088Z,39.99
2023-11-29T11:22:44.861Z,40.67
2023-11-29T11:25:17.899Z,40.63
2023-11-29T11:27:50.340Z,39.99
2023-11-29T11:30:29.480Z,39.62
2023-11-29T11:33:01.789Z,39.61
2023-11-29T11:35:39.645Z,39.96
2023-11-29T11:38:12.301Z,39.69
2023-11-29T11:40:44.075Z,39.71
2023-11-29T11:43:17.433Z,39.61
2023-11-29T11:45:49.692Z,39.37
2023-11-29T11:48:23.859Z,39.04
2023-11-29T11:50:57.005Z,38.43
2023-11-29T11:53:27.866Z,38.80
2023-11-29T11:55:58.711Z,38.99
2023-11-29T11:58:29.953Z,39.20
2023-11-29T12:01:00.887Z,39.40
2023-11-29T12:03:31.772Z,39.37
2023-11-29T12:06:05.655Z,39.92
2023-11-29T12:08:37.264Z,40.51
2023-11-29T12:11:10.949Z,40.72
2023-11-29T12:13:42.213Z,41.00
2023-11-29T12:16:20.201Z,40.87
2023-11-29T12:18:51.362Z,41.13
2023-11-29T12:21:22.946Z,41.43
2023-11-29T12:23:53.783Z,41.85
2023-11-29T12:26:25.103Z,42.20
2023-11-29T12:29:00.062Z,42.55
2023-11-29T12:31:35.650Z,42.68
2023-11-29T12:34:06.924Z,42.72
2023-11-29T12:36:37.890Z,43.19
2023-11-29T12:39:08.903Z,43.31
2023-11-29T12:41:40.578Z,43.79
2023-11-29T12:44:11.608Z,43.85
2023-11-29T12:46:42.500Z,44.57
2023-11-29T12:49:13.396Z,45.01
2023-11-29T12:51:44.249Z,45.28
2023-11-29T12:54:20.741Z,45.53
2023-11-29T12:56:56.431Z,45.83
2023-11-29T12:59:27.525Z,45.98
2023-11-29T13:01:58.476Z,45.89
2023-11-29T13:04:30.218Z,46.18
2023-11-29T13:07:01.118Z,46.41
2023-11-29T13:09:33.194Z,46.69
2023-11-29T13:12:04.369Z,47.31
2023-11-29T13:14:42.697Z,47.49
2023-11-29T13:17:14.413Z,47.23
2023-11-29T13:19:45.519Z,47.27
2023-11-29T13:22:16.406Z,46.95
2023-11-29T13:24:47.317Z,47.08
2023-11-29T13:27:18.300Z,47.29
2023-11-29T13:29:49.218Z,47.43
2023-11-29T13:32:20.098Z,47.16
2023-11-29T13:34:50.949Z,47.31
2023-11-29T13:37:21.860Z,46.92
2023-11-29T13:39:52.743Z,46.21
2023-11-29T13:42:23.638Z,45.72
2023-11-29T13:44:54.467Z,45.45
2023-11-29T13:47:27.148Z,45.79
2023-11-29T13:49:58.016Z,45.72
2023-11-29T13:52:28.851Z,46.49
2023-11-29T13:54:59.761Z,46.42
2023-11-29T13:57:30.579Z,46.41
2023-11-29T14:00:01.802Z,45.34
2023-11-29T14:02:32.869Z,44.78
2023-11-29T14:05:04.033Z,45.11
2023-11-29T14:07:36.144Z,45.57
2023-11-29T14:10:08.535Z,46.36
2023-11-29T14:12:39.433Z,46.93
2023-11-29T14:15:11.954Z,47.42
2023-11-29T14:17:42.881Z,47.39
2023-11-29T14:20:14.601Z,47.73
2023-11-29T14:22:45.431Z,48.20
2023-11-29T14:25:16.400Z,48.50
2023-11-29T14:27:54.306Z,48.72
2023-11-29T14:30:28.854Z,49.04
2023-11-29T14:32:59.843Z,49.42
2023-11-29T14:35:30.786Z,49.55
2023-11-29T14:38:01.688Z,49.72
2023-11-29T14:40:32.666Z,50.06
2023-11-29T14:43:03.967Z,50.37
2023-11-29T14:45:34.809Z,50.54
2023-11-29T14:48:09.305Z,50.70
2023-11-29T14:50:40.214Z,50.94
2023-11-29T14:53:11.360Z,50.96
2023-11-29T14:55:42.189Z,51.13
2023-11-29T14:58:13.318Z,51.52
2023-11-29T15:00:44.187Z,51.66
2023-11-29T15:03:15.102Z,51.79
2023-11-29T15:05:45.944Z,52.11
2023-11-29T15:08:16.994Z,52.32
2023-11-29T15:10:47.833Z,52.49
2023-11-29T15:13:18.868Z,52.88
2023-11-29T15:15:49.764Z,52.99
2023-11-29T15:18:20.962Z,53.18
2023-11-29T15:20:51.942Z,53.55
2023-11-29T15:23:22.784Z,53.70
2023-11-29T15:25:53.665Z,53.96
2023-11-29T15:28:24.740Z,54.48
2023-11-29T15:30:55.590Z,54.59
2023-11-29T15:33:26.613Z,54.67
2023-11-29T15:35:58.860Z,54.79
2023-11-29T15:38:30.103Z,54.91
2023-11-29T15:41:01.905Z,55.09
2023-11-29T15:43:33.362Z,55.40
2023-11-29T15:46:04.331Z,55.72
2023-11-29T15:48:35.487Z,55.89
2023-11-29T15:51:07.213Z,56.26
2023-11-29T15:53:38.124Z,56.43
2023-11-29T15:56:10.585Z,56.51
2023-11-29T15:58:44.597Z,56.72
2023-11-29T16:01:15.623Z,56.98
2023-11-29T16:03:46.592Z,57.10
2023-11-29T16:06:17.572Z,57.18
2023-11-29T16:08:48.623Z,57.47
2023-11-29T16:11:19.491Z,57.65
2023-11-29T16:13:50.419Z,57.83
2023-11-29T16:16:21.631Z,57.79
2023-11-29T16:18:52.685Z,58.02
2023-11-29T16:21:24.013Z,57.98
2023-11-29T16:23:54.960Z,57.94
2023-11-29T16:26:25.881Z,58.26
2023-11-29T16:28:56.783Z,57.95
2023-11-29T16:31:27.705Z,57.93
2023-11-29T16:33:58.658Z,57.80
2023-11-29T16:36:29.701Z,57.80
2023-11-29T16:39:00.591Z,57.70
2023-11-29T16:41:31.458Z,57.74
2023-11-29T16:44:02.336Z,57.93
2023-11-29T16:46:35.039Z,57.89
2023-11-29T16:49:06.499Z,57.92
2023-11-29T16:51:39.450Z,58.08
2023-11-29T16:54:10.335Z,58.13
2023-11-29T16:56:46.121Z,58.28
2023-11-29T16:59:16.995Z,58.15
2023-11-29T17:01:47.837Z,58.17
2023-11-29T17:04:18.760Z,58.52
2023-11-29T17:06:49.591Z,58.52
2023-11-29T17:09:20.452Z,58.62
2023-11-29T17:11:51.611Z,58.56
2023-11-29T17:14:22.471Z,58.63
2023-11-29T17:16:53.384Z,58.93
2023-11-29T17:19:24.284Z,59.13
2023-11-29T17:21:55.637Z,59.14
2023-11-29T17:24:26.485Z,59.34
2023-11-29T17:26:57.366Z,59.71
2023-11-29T17:29:29.493Z,59.69
2023-11-29T17:32:00.353Z,59.68
2023-11-29T17:34:31.208Z,59.84
2023-11-29T17:37:02.046Z,59.91
2023-11-29T17:39:32.911Z,59.94
2023-11-29T17:42:03.802Z,59.97
2023-11-29T17:44:34.713Z,60.02
2023-11-29T17:47:05.830Z,60.07
2023-11-29T17:49:36.840Z,60.02
2023-11-29T17:52:10.004Z,59.96
2023-11-29T17:54:40.955Z,59.77
2023-11-29T17:57:12.350Z,59.80
2023-11-29T17:59:43.287Z,59.89
2023-11-29T18:02:14.278Z,59.81
2023-11-29T18:04:46.307Z,59.79
2023-11-29T18:07:17.330Z,59.59
2023-11-29T18:09:48.189Z,59.57
2023-11-29T18:12:19.107Z,59.61
2023-11-29T18:14:50.003Z,59.80
2023-11-29T18:17:20.939Z,59.94
2023-11-29T18:19:51.823Z,59.89
2023-11-29T18:22:22.709Z,60.20
2023-11-29T18:24:53.572Z,60.08
2023-11-29T18:27:24.465Z,60.43
2023-11-29T18:29:55.372Z,60.61
2023-11-29T18:32:26.342Z,60.63
2023-11-29T18:34:57.184Z,60.72
2023-11-29T18:37:28.018Z,61.03
2023-11-29T18:39:58.862Z,61.10
2023-11-29T18:42:29.693Z,61.37
2023-11-29T18:45:00.773Z,61.37
2023-11-29T18:47:31.712Z,61.68
2023-11-29T18:50:02.947Z,61.63
2023-11-29T18:52:33.770Z,61.76
2023-11-29T18:55:04.878Z,61.91
2023-11-29T18:57:40.038Z,61.92
2023-11-29T19:00:14.783Z,61.82
2023-11-29T19:02:45.902Z,62.01
2023-11-29T19:05:17.664Z,61.62
2023-11-29T19:07:48.775Z,61.65
2023-11-29T19:10:20.021Z,61.64
2023-11-29T19:12:50.857Z,61.75
2023-11-29T19:15:22.026Z,61.57
2023-11-29T19:17:52.975Z,61.71
2023-11-29T19:20:24.025Z,61.81
2023-11-29T19:22:54.915Z,62.00
2023-11-29T19:25:25.793Z,62.21
2023-11-29T19:27:56.616Z,62.17
2023-11-29T19:30:27.732Z,62.56
2023-11-29T19:32:58.435Z,62.65
2023-11-29T19:35:32.743Z,62.82
2023-11-29T19:38:03.614Z,62.97
2023-11-29T19:40:34.488Z,63.15
2023-11-29T19:43:05.335Z,63.36
2023-11-29T19:45:36.198Z,63.61
2023-11-29T19:48:07.627Z,63.54
2023-11-29T19:50:38.608Z,63.55
2023-11-29T19:53:10.052Z,63.82
2023-11-29T19:55:40.926Z,64.03
2023-11-29T19:58:23.300Z,63.92
2023-11-29T20:00:58.930Z,63.79
2023-11-29T20:03:29.905Z,63.74
2023-11-29T20:06:01.343Z,63.54
2023-11-29T20:08:32.289Z,63.53
2023-11-29T20:11:03.447Z,63.52
2023-11-29T20:13:34.253Z,63.66
2023-11-29T20:16:06.017Z,63.54
2023-11-29T20:18:38.074Z,69.44
2023-11-29T20:21:10.545Z,71.01
2023-11-29T20:23:41.625Z,66.39
2023-11-29T20:26:13.140Z,65.08
2023-11-29T20:28:44.206Z,64.52
2023-11-29T20:31:15.391Z,64.28
2023-11-29T20:33:46.432Z,64.36
2023-11-29T20:36:17.406Z,64.25
2023-11-29T20:38:48.252Z,64.22
2023-11-29T20:41:23.679Z,64.04
2023-11-29T20:43:54.514Z,63.96
2023-11-29T20:46:25.444Z,64.24
2023-11-29T20:48:56.223Z,64.27
2023-11-29T20:51:27.165Z,64.54
2023-11-29T20:53:57.896Z,64.62
2023-11-29T20:56:27.026Z,64.88
2023-11-29T20:58:57.685Z,64.98
2023-11-29T21:01:26.757Z,65.01
2023-11-29T21:03:57.661Z,65.25
2023-11-29T21:06:28.648Z,65.06
2023-11-29T21:08:59.324Z,65.19
2023-11-29T21:11:29.595Z,65.22
2023-11-29T21:14:00.417Z,65.35
2023-11-29T21:16:31.126Z,65.38
2023-11-29T21:19:00.348Z,65.32
2023-11-29T21:21:31.747Z,65.39
2023-11-29T21:24:02.490Z,65.36
2023-11-29T21:26:31.537Z,65.34
2023-11-29T21:29:02.223Z,65.14
2023-11-29T21:31:33.235Z,65.00
2023-11-29T21:34:04.137Z,64.88
2023-11-29T21:36:33.608Z,65.05
2023-11-29T21:39:04.586Z,64.86
2023-11-29T21:41:35.288Z,64.89
2023-11-29T21:44:04.381Z,64.80
2023-11-29T21:46:35.087Z,64.91
2023-11-29T21:49:04.325Z,64.95
2023-11-29T21:51:35.543Z,65.00
2023-11-29T21:54:06.579Z,65.19
2023-11-29T21:56:37.730Z,65.17
2023-11-29T21:59:08.552Z,65.26
2023-11-29T22:01:39.281Z,65.23
2023-11-29T22:04:08.478Z,65.34
2023-11-29T22:06:39.177Z,65.40
2023-11-29T22:09:12.270Z,65.41
2023-11-29T22:11:43.419Z,65.58
2023-11-29T22:14:14.275Z,65.69
2023-11-29T22:16:44.990Z,65.92
2023-11-29T22:19:14.539Z,66.16
2023-11-29T22:21:45.279Z,66.17
2023-11-29T22:24:16.002Z,66.16
2023-11-29T22:26:52.490Z,66.08
2023-11-29T22:29:27.801Z,66.26
2023-11-29T22:31:59.423Z,65.94
2023-11-29T22:34:30.135Z,65.97
2023-11-29T22:37:00.804Z,65.88
2023-11-29T22:39:32.409Z,65.71
2023-11-29T22:42:03.088Z,65.87
2023-11-29T22:44:33.765Z,65.70
2023-11-29T22:47:03.679Z,65.90
2023-11-29T22:49:34.909Z,66.10
2023-11-29T22:52:06.948Z,66.13
2023-11-29T22:54:37.792Z,66.26
2023-11-29T22:57:09.275Z,66.14
2023-11-29T22:59:40.031Z,66.11
2023-11-29T23:02:10.748Z,66.18
2023-11-29T23:04:39.879Z,66.46
2023-11-29T23:07:10.555Z,66.56
2023-11-29T23:09:41.954Z,66.71
2023-11-29T23:12:12.675Z,66.52
2023-11-29T23:14:41.724Z,66.63
2023-11-29T23:17:12.473Z,66.99
2023-11-29T23:19:41.524Z,66.93
2023-11-29T23:22:12.188Z,66.89
2023-11-29T23:24:42.876Z,66.94
2023-11-29T23:27:13.570Z,67.45
2023-11-29T23:29:42.680Z,67.32
2023-11-29T23:32:13.600Z,67.30
2023-11-29T23:34:44.382Z,67.31
2023-11-29T23:37:13.533Z,67.25
2023-11-29T23:39:44.185Z,67.48
2023-11-29T23:42:14.869Z,67.31
2023-11-29T23:44:45.592Z,67.23
2023-11-29T23:47:16.281Z,66.97
2023-11-29T23:49:47.136Z,67.08
2023-11-29T23:52:16.602Z,67.00
2023-11-29T23:54:45.689Z,67.09
2023-11-29T23:57:16.431Z,67.15
2023-11-29T23:59:47.111Z,67.19
